Flight Track Log - Related Links

Times and Time Zones

All times are in EDT time to prevent confusion due to time zone crossing. See the USC105 flight status page for this flight to view local times or setup timezone preferences in your user account.

Time Position Orientation Groundspeed Altitude Reporting Facility
EDT Latitude Longitude Course Direction KTS MPH feet Rate Location/Type
Wed 06:58:16 AM 42.2064 -83.5772 229° Southwest 129 148 2,100  Level Cleveland Center
Wed 06:59:23 AM 42.1686 -83.5950 229° Southwest 139 160 3,000 425 Climbing Cleveland Center
Wed 07:00:23 AM 42.1242 -83.6125 196° South 167 192 3,000  Level Cleveland Center
Wed 07:01:12 AM 42.0828 -83.5992 167° South 185 213 3,000 99 Level Cleveland Center
Wed 07:02:24 AM 42.0253 -83.5714 160° South 171 197 3,200 132 Climbing Cleveland Center
Wed 07:04:00 AM 41.8761 -83.5266 167° South  Level Estimated
Wed 07:11:00 AM 41.2593 -83.4833 204° Southwest  Level FlightAware Approximate
Wed 07:12:00 AM 41.1717 -83.5340 204° Southwest  Level FlightAware Approximate
Wed 07:13:00 AM 41.0841 -83.5846 204° Southwest  Level FlightAware Approximate
Wed 07:14:00 AM 40.9965 -83.6350 203° Southwest  Level FlightAware Approximate
Wed 07:15:00 AM 40.9089 -83.6854 203° Southwest  Level FlightAware Approximate
Wed 07:16:00 AM 40.8341 -83.6385 137° Southeast  Level FlightAware Approximate
Wed 07:17:00 AM 40.7540 -83.5716 145° Southeast  Level FlightAware Approximate
Wed 07:18:00 AM 40.6758 -83.4993 145° Southeast  Level FlightAware Approximate
Wed 07:19:00 AM 40.5975 -83.4271 145° Southeast  Level FlightAware Approximate
Wed 07:20:00 AM 40.5165 -83.3610 153° Southeast  Level FlightAware Approximate
Wed 07:21:00 AM 40.4362 -83.2932 146° Southeast  Level FlightAware Approximate
Wed 07:22:00 AM 40.3571 -83.2230 146° Southeast  Level FlightAware Approximate
Wed 07:23:00 AM 40.2688 -83.1760 159° South  Level FlightAware Approximate
Wed 07:24:00 AM 40.1796 -83.1312 156° South  Level FlightAware Approximate
Wed 07:25:00 AM 40.0921 -83.0812 156° South  Level FlightAware Approximate
Wed 07:26:00 AM 40.0046 -83.0311 156° South  Level FlightAware Approximate
Wed 07:27:00 AM 39.9171 -82.9811 156° South  Level FlightAware Approximate
Wed 07:28:00 AM 39.8295 -82.9314 159° South  Level FlightAware Approximate
Wed 07:29:00 AM 39.8138 -82.9278 159° South  Level Estimated
Wed 07:30:00 AM 39.8138 -82.9278 159° South  Level Estimated
Wed 07:31:00 AM 39.8138 -82.9278 159° South  Level Estimated
Wed 07:31:30 AM 40.5161 -83.1075 159° South 202 232 7,000  Level Indianapolis Center
Wed 07:32:00 AM 39.8138 -82.9278 159° South  Level Estimated
Wed 07:32:31 AM 40.4617 -83.0942 169° South 200 230 7,000  Level Indianapolis Center
Wed 07:33:00 AM 39.8138 -82.9278 159° South  Level Estimated
Wed 07:33:33 AM 40.4067 -83.0806 169° South 199 229 7,000  Level Indianapolis Center
Wed 07:34:00 AM 39.8138 -82.9278 159° South  Level Estimated
Wed 07:34:34 AM 40.3514 -83.0653 168° South 202 232 7,000  Level Indianapolis Center
Wed 07:35:00 AM 39.8138 -82.9278 159° South  Level Estimated
Wed 07:35:36 AM 40.2944 -83.0200 149° Southeast 208 239 6,600  Level Indianapolis Center
Wed 07:36:00 AM 39.8138 -82.9278 159° South  Level Estimated
Wed 07:36:37 AM 40.2492 -82.9744 142° Southeast 208 239 6,200  Level Indianapolis Center
Wed 07:37:44 AM 40.2003 -82.9247 142° Southeast 205 236 5,600 -574 Descending Indianapolis Center
Wed 07:38:32 AM 40.1611 -82.8847 142° Southeast 208 239 5,100 -522 Descending Indianapolis Center
Wed 07:39:39 AM 40.1086 -82.8569 158° South 193 222 4,600 -466 Descending Indianapolis Center
Wed 07:40:28 AM 40.0672 -82.8494 172° South 172 198 4,200 -288 Descending Indianapolis Center
Wed 07:41:44 AM 40.0128 -82.8417 174° South 181 208 4,000 -87 Descending Indianapolis Center
Wed 07:42:46 AM 39.9675 -82.8342 173° South 175 201 4,000  Level Indianapolis Center
Wed 07:43:47 AM 39.9253 -82.8314 177° South 168 193 4,000 -439 Level Indianapolis Center
Wed 07:44:49 AM 39.8756 -82.8400 188° South 167 192 3,100 -1,230 Descending Indianapolis Center
Wed 07:45:49 AM 39.8403 -82.8944 230° Southwest 177 204 1,500 -1,600 Descending Indianapolis Center
Wed 07:47:00 AM 39.8000 -82.9167 184° South  Level FlightAware Approximate

Login

Don't have an account? Register now (free) for customized features, flight alerts, and more!